Time;durP1;ratioP1;P1;durP2;ratioP2;P2;SDS_P1;SDS_P2;PMS_P1;PMS_P2;Temp;Humidity;BMP_temperature;BMP_pressure;BME280_temperature;BME280_humidity;BME280_pressure;Samples;Min_cycle;Max_cycle;Signal;HPM_P1;HPM_P2
2021/06/07 00:01:59;;;;;;;20.10;15.48;;;17.80;86.60;;;;;;4997778;28;20125;-65
2021/06/07 00:04:26;;;;;;;18.17;14.57;;;17.80;86.70;;;;;;4996298;28;20030;-65
2021/06/07 00:06:51;;;;;;;19.60;16.08;;;17.70;86.70;;;;;;4999141;28;20038;-65
2021/06/07 00:09:18;;;;;;;19.80;15.40;;;17.70;87.60;;;;;;5001129;28;20037;-66
2021/06/07 00:11:47;;;;;;;23.10;16.98;;;17.80;86.90;;;;;;4998732;28;20039;-65
2021/06/07 00:14:15;;;;;;;24.50;17.20;;;17.70;86.90;;;;;;5001061;28;20022;-65
2021/06/07 00:16:41;;;;;;;24.42;18.15;;;17.70;86.90;;;;;;5002734;28;20587;-65
2021/06/07 00:19:10;;;;;;;24.30;18.27;;;17.70;86.90;;;;;;5001358;28;20049;-65
2021/06/07 00:21:36;;;;;;;25.70;18.77;;;17.70;87.00;;;;;;5000002;28;20031;-65
2021/06/07 00:24:04;;;;;;;23.77;18.00;;;17.70;86.90;;;;;;5000390;28;20552;-66
2021/06/07 00:26:30;;;;;;;26.27;17.20;;;17.70;87.00;;;;;;5001698;28;20044;-65
2021/06/07 00:28:56;;;;;;;25.40;17.25;;;17.70;87.10;;;;;;4999331;28;20042;-65
2021/06/07 00:31:23;;;;;;;24.95;17.80;;;17.70;87.20;;;;;;4999956;28;20037;-65
2021/06/07 00:33:50;;;;;;;24.52;17.58;;;17.70;87.20;;;;;;4999223;28;20146;-64
2021/06/07 00:36:21;;;;;;;24.48;17.95;;;17.70;87.30;;;;;;4999767;28;20038;-65
2021/06/07 00:38:47;;;;;;;22.73;17.17;;;17.70;87.30;;;;;;4999406;28;20034;-65
2021/06/07 00:41:14;;;;;;;24.40;17.38;;;17.70;87.40;;;;;;4999835;28;20148;-65
2021/06/07 00:43:39;;;;;;;22.80;17.27;;;17.70;87.50;;;;;;5001542;28;20416;-64
2021/06/07 00:46:05;;;;;;;22.33;16.83;;;17.70;87.40;;;;;;5006095;28;20045;-65
2021/06/07 00:48:32;;;;;;;21.20;15.82;;;17.70;87.50;;;;;;5000031;28;20038;-65
2021/06/07 00:51:01;;;;;;;23.55;17.52;;;17.70;87.50;;;;;;5000475;28;20054;-66
2021/06/07 00:53:27;;;;;;;22.63;16.73;;;17.70;87.60;;;;;;4998452;28;20034;-65
2021/06/07 00:55:56;;;;;;;20.27;15.75;;;17.70;87.60;;;;;;5001732;28;20796;-65
2021/06/07 00:58:40;;;;;;;20.00;16.20;;;17.70;87.70;;;;;;5000792;28;20370;-65
2021/06/07 01:01:09;;;;;;;21.25;14.82;;;17.70;88.00;;;;;;5000809;28;20073;-65
2021/06/07 01:03:36;;;;;;;20.40;14.85;;;17.70;87.60;;;;;;5000601;28;20561;-65
2021/06/07 01:06:04;;;;;;;19.77;15.38;;;17.70;88.50;;;;;;4999892;28;20089;-65
2021/06/07 01:08:29;;;;;;;21.67;15.02;;;17.70;87.70;;;;;;4999162;28;20101;-64
2021/06/07 01:10:56;;;;;;;18.35;14.35;;;17.70;87.70;;;;;;5001027;28;20109;-66
2021/06/07 01:13:23;;;;;;;19.17;14.13;;;17.70;87.80;;;;;;4999060;28;20716;-65
2021/06/07 01:15:50;;;;;;;17.02;13.70;;;17.70;87.70;;;;;;5000208;28;20061;-65
2021/06/07 01:18:18;;;;;;;16.90;14.05;;;17.70;87.60;;;;;;4998361;28;20434;-64
2021/06/07 01:20:45;;;;;;;14.95;12.45;;;17.70;87.60;;;;;;4998890;28;20383;-64
2021/06/07 01:23:11;;;;;;;18.27;12.80;;;17.70;87.50;;;;;;4999074;28;20033;-65
2021/06/07 01:25:41;;;;;;;17.15;12.77;;;17.70;87.50;;;;;;4999831;28;20029;-64
2021/06/07 01:28:10;;;;;;;16.13;12.32;;;17.70;87.80;;;;;;5006164;28;20035;-65
2021/06/07 01:30:40;;;;;;;15.63;11.88;;;17.80;87.60;;;;;;4998393;28;20038;-64
2021/06/07 01:33:09;;;;;;;14.43;11.80;;;17.80;87.50;;;;;;4999506;28;20034;-64
2021/06/07 01:35:36;;;;;;;12.95;10.65;;;17.80;87.40;;;;;;5003802;28;20092;-65
2021/06/07 01:38:02;;;;;;;13.15;10.32;;;17.80;87.30;;;;;;5000034;28;20108;-65
2021/06/07 01:40:33;;;;;;;13.43;11.13;;;17.80;87.30;;;;;;4998736;28;20048;-65
2021/06/07 01:43:00;;;;;;;14.27;10.57;;;17.80;88.30;;;;;;4999944;28;20547;-64
2021/06/07 01:45:28;;;;;;;11.80;10.18;;;17.80;88.20;;;;;;4998495;28;20034;-65
2021/06/07 01:47:56;;;;;;;11.30;9.90;;;17.80;87.30;;;;;;4998605;28;20042;-64
2021/06/07 01:50:22;;;;;;;11.45;9.18;;;17.80;87.30;;;;;;4999461;28;20030;-66
2021/06/07 01:52:49;;;;;;;11.77;9.82;;;17.90;87.30;;;;;;4998489;28;20035;-65
2021/06/07 01:55:29;;;;;;;12.73;9.90;;;17.90;87.10;;;;;;4998758;28;20097;-65
2021/06/07 01:57:54;;;;;;;9.93;8.52;;;17.90;87.10;;;;;;4999862;28;20378;-66
2021/06/07 02:00:25;;;;;;;9.98;8.82;;;17.90;87.00;;;;;;4998718;28;20092;-65
2021/06/07 02:02:52;;;;;;;12.15;9.45;;;17.90;87.00;;;;;;4999715;28;20085;-65
2021/06/07 02:05:27;;;;;;;10.60;9.02;;;17.90;86.80;;;;;;4998930;28;20040;-65
2021/06/07 02:07:54;;;;;;;10.70;9.10;;;18.00;86.80;;;;;;4999525;28;20391;-65
2021/06/07 02:10:23;;;;;;;9.77;8.25;;;18.00;86.90;;;;;;4997911;28;20050;-66
2021/06/07 02:12:49;;;;;;;10.05;8.93;;;18.00;86.70;;;;;;5003649;28;20109;-65
2021/06/07 02:15:15;;;;;;;9.63;7.78;;;17.90;86.60;;;;;;4998180;28;22190;-64
2021/06/07 02:17:41;;;;;;;10.57;8.38;;;18.00;86.60;;;;;;4999731;28;20034;-65
2021/06/07 02:20:11;;;;;;;9.15;8.23;;;18.00;86.60;;;;;;4998973;28;20665;-65
2021/06/07 02:22:38;;;;;;;8.73;7.90;;;18.00;86.60;;;;;;4998074;28;20030;-65
2021/06/07 02:25:06;;;;;;;9.20;7.82;;;18.00;86.60;;;;;;4997629;28;20446;-65
2021/06/07 02:27:32;;;;;;;8.65;7.72;;;18.00;86.40;;;;;;4998944;28;20062;-64
2021/06/07 02:29:58;;;;;;;9.57;7.68;;;18.00;86.30;;;;;;4997301;28;20034;-65
2021/06/07 02:32:24;;;;;;;8.30;7.10;;;18.00;86.20;;;;;;4996935;28;20459;-65
2021/06/07 02:34:50;;;;;;;8.45;7.03;;;18.00;86.20;;;;;;4997651;28;20100;-66
2021/06/07 02:37:17;;;;;;;7.80;6.95;;;18.00;86.30;;;;;;4997907;28;20032;-66
2021/06/07 02:39:43;;;;;;;7.90;7.10;;;18.00;86.30;;;;;;4997707;28;20040;-66
2021/06/07 02:42:11;;;;;;;6.85;6.25;;;18.00;86.30;;;;;;5004409;28;20038;-65
2021/06/07 02:44:37;;;;;;;7.22;6.38;;;18.00;86.40;;;;;;4997732;28;20037;-66
2021/06/07 02:47:04;;;;;;;6.88;6.20;;;18.00;86.30;;;;;;4999164;28;20107;-66
2021/06/07 02:49:30;;;;;;;7.32;6.63;;;18.00;86.30;;;;;;4998177;28;20069;-65
2021/06/07 02:51:55;;;;;;;7.85;6.65;;;18.00;86.20;;;;;;4997990;28;20104;-66
2021/06/07 02:54:21;;;;;;;7.28;6.38;;;18.00;86.20;;;;;;4998014;28;20038;-65
2021/06/07 02:56:47;;;;;;;8.20;6.18;;;18.00;86.30;;;;;;4998275;28;20037;-65
2021/06/07 02:59:12;;;;;;;7.40;6.57;;;18.00;86.30;;;;;;4997414;28;20100;-65
2021/06/07 03:01:38;;;;;;;6.60;5.97;;;18.00;86.20;;;;;;5003947;28;20034;-65
2021/06/07 03:04:04;;;;;;;7.90;6.07;;;18.00;86.20;;;;;;4997189;28;20122;-65
2021/06/07 03:06:29;;;;;;;6.60;5.95;;;18.00;86.20;;;;;;5004032;28;20026;-66
2021/06/07 03:08:55;;;;;;;6.20;5.50;;;18.00;86.30;;;;;;4997641;28;20042;-65
2021/06/07 03:11:20;;;;;;;6.25;5.65;;;18.00;86.40;;;;;;4996967;28;20049;-65
2021/06/07 03:13:46;;;;;;;6.75;6.05;;;18.00;86.40;;;;;;4998079;28;20027;-65
2021/06/07 03:16:12;;;;;;;6.00;5.30;;;18.00;86.40;;;;;;4997794;28;20026;-66
2021/06/07 03:18:38;;;;;;;6.00;5.45;;;18.00;86.40;;;;;;5003601;28;20039;-65
2021/06/07 03:21:05;;;;;;;6.18;5.53;;;18.00;86.20;;;;;;4998227;28;20026;-66
2021/06/07 03:23:33;;;;;;;6.05;5.45;;;18.00;86.00;;;;;;4997642;28;20050;-65
2021/06/07 03:26:00;;;;;;;6.03;4.97;;;18.00;86.10;;;;;;5003025;28;20433;-66
2021/06/07 03:28:26;;;;;;;5.45;4.95;;;18.00;86.20;;;;;;4998077;28;20041;-65
2021/06/07 03:30:52;;;;;;;5.57;5.07;;;18.00;86.20;;;;;;4997129;28;20421;-65
2021/06/07 03:33:20;;;;;;;5.47;4.97;;;18.00;86.20;;;;;;4996642;28;20034;-66
2021/06/07 03:35:48;;;;;;;5.25;4.63;;;18.00;86.30;;;;;;4997348;28;20138;-65
2021/06/07 03:38:15;;;;;;;5.57;5.10;;;17.90;86.30;;;;;;4998692;28;20105;-65
2021/06/07 03:40:45;;;;;;;5.43;4.93;;;18.00;86.30;;;;;;4998956;28;20033;-65
2021/06/07 03:43:11;;;;;;;6.10;5.50;;;18.00;86.40;;;;;;5001528;28;20022;-66
2021/06/07 03:45:37;;;;;;;6.57;5.97;;;18.10;86.40;;;;;;5001702;28;20045;-65
2021/06/07 03:48:04;;;;;;;6.18;5.57;;;18.10;86.30;;;;;;5005738;28;20084;-65
2021/06/07 03:50:30;;;;;;;5.60;5.10;;;18.10;86.20;;;;;;5000941;28;20080;-65
2021/06/07 03:52:56;;;;;;;5.68;5.18;;;18.10;86.00;;;;;;5002120;28;20049;-65
2021/06/07 03:55:24;;;;;;;5.93;5.32;;;18.10;85.90;;;;;;5000946;28;20121;-65
2021/06/07 03:57:51;;;;;;;5.75;5.15;;;18.10;85.80;;;;;;5002300;28;20026;-65
2021/06/07 04:00:20;;;;;;;6.00;5.38;;;18.20;85.70;;;;;;5001176;28;20497;-65
2021/06/07 04:02:46;;;;;;;5.50;5.00;;;18.20;85.70;;;;;;4998493;28;20066;-66
2021/06/07 04:05:13;;;;;;;6.15;5.00;;;18.20;85.70;;;;;;4997287;28;20108;-65
2021/06/07 04:07:39;;;;;;;6.95;5.10;;;18.20;85.70;;;;;;4996684;28;20053;-65
2021/06/07 04:10:11;;;;;;;6.32;5.72;;;18.20;85.50;;;;;;4999347;28;20141;-65
2021/06/07 04:12:37;;;;;;;6.00;5.35;;;18.20;85.30;;;;;;4996206;28;20034;-66
2021/06/07 04:15:05;;;;;;;6.10;5.60;;;18.20;85.30;;;;;;4998567;28;20034;-65
2021/06/07 04:17:30;;;;;;;6.18;5.57;;;18.20;85.30;;;;;;4997917;28;20034;-65
2021/06/07 04:19:56;;;;;;;6.30;5.70;;;18.20;85.30;;;;;;4996013;28;20030;-65
2021/06/07 04:22:22;;;;;;;6.28;5.63;;;18.10;85.50;;;;;;5010417;28;20033;-66
2021/06/07 04:24:47;;;;;;;6.18;5.57;;;18.10;85.50;;;;;;5002241;28;20061;-65
2021/06/07 04:27:13;;;;;;;6.38;5.63;;;18.10;85.60;;;;;;5003359;28;20030;-64
2021/06/07 04:29:42;;;;;;;6.15;5.55;;;18.10;85.70;;;;;;5000019;28;20038;-65
2021/06/07 04:32:09;;;;;;;6.13;5.53;;;18.00;85.70;;;;;;5001752;28;20042;-65
2021/06/07 04:34:36;;;;;;;5.82;5.22;;;18.00;85.70;;;;;;4999305;28;20425;-65
2021/06/07 04:37:05;;;;;;;5.82;5.28;;;18.00;85.90;;;;;;5000727;28;20101;-65
2021/06/07 04:39:31;;;;;;;5.65;5.15;;;18.00;86.00;;;;;;4999285;28;20033;-65
2021/06/07 04:41:57;;;;;;;6.03;4.95;;;18.00;86.00;;;;;;5008156;28;20042;-65
2021/06/07 04:44:23;;;;;;;6.30;5.70;;;18.10;86.00;;;;;;4998554;28;20034;-65
2021/06/07 04:46:49;;;;;;;6.10;5.50;;;18.10;86.20;;;;;;5001181;28;20068;-65
2021/06/07 04:49:14;;;;;;;7.07;5.50;;;18.10;86.00;;;;;;4999987;28;20040;-65
2021/06/07 04:51:40;;;;;;;6.07;5.35;;;18.10;86.10;;;;;;5000502;28;20112;-65
2021/06/07 04:54:06;;;;;;;6.63;5.53;;;18.10;86.00;;;;;;4999612;28;20038;-65
2021/06/07 04:56:32;;;;;;;5.70;5.10;;;18.20;86.00;;;;;;4999351;28;20036;-65
2021/06/07 04:58:57;;;;;;;6.18;5.50;;;18.20;86.00;;;;;;4998953;28;20033;-65
2021/06/07 05:01:23;;;;;;;5.68;4.93;;;18.20;86.00;;;;;;4999265;28;20417;-65
2021/06/07 05:03:49;;;;;;;5.97;5.22;;;18.10;86.10;;;;;;4999934;28;20066;-66
2021/06/07 05:06:14;;;;;;;6.05;5.07;;;18.20;86.20;;;;;;4998940;28;20038;-65
2021/06/07 05:08:40;;;;;;;5.45;4.90;;;18.20;86.10;;;;;;4999682;28;20368;-65
2021/06/07 05:11:06;;;;;;;5.07;4.57;;;18.10;86.00;;;;;;4998431;28;20397;-65
2021/06/07 05:13:32;;;;;;;5.43;4.75;;;18.10;86.00;;;;;;5000032;28;20027;-65
2021/06/07 05:15:59;;;;;;;5.82;5.30;;;18.20;86.40;;;;;;4996485;28;20491;-65
2021/06/07 05:18:25;;;;;;;5.35;4.85;;;18.20;86.40;;;;;;5000409;28;20026;-65
2021/06/07 05:20:51;;;;;;;5.30;4.82;;;18.10;86.20;;;;;;5000111;28;20405;-65
2021/06/07 05:23:17;;;;;;;5.13;4.63;;;18.20;86.40;;;;;;5001899;28;20037;-64
2021/06/07 05:25:43;;;;;;;5.75;5.13;;;18.20;86.50;;;;;;5000167;28;20480;-65
2021/06/07 05:28:12;;;;;;;7.40;4.85;;;18.20;86.50;;;;;;4999156;28;20026;-65
2021/06/07 05:30:40;;;;;;;6.35;5.75;;;18.20;86.50;;;;;;4997755;28;20042;-64
2021/06/07 05:33:06;;;;;;;5.95;5.05;;;18.30;86.20;;;;;;4997498;28;20163;-65
2021/06/07 05:35:40;;;;;;;5.97;5.15;;;18.30;86.00;;;;;;4998200;28;20124;-65
2021/06/07 05:38:07;;;;;;;6.15;5.43;;;18.30;86.00;;;;;;5002594;28;20033;-65
2021/06/07 05:40:34;;;;;;;6.15;5.32;;;18.30;85.90;;;;;;4998808;28;20030;-65
2021/06/07 05:43:01;;;;;;;6.13;5.30;;;18.30;85.90;;;;;;4999446;28;20030;-64
2021/06/07 05:45:27;;;;;;;7.40;5.07;;;18.30;86.00;;;;;;4997961;28;20540;-65
2021/06/07 05:47:54;;;;;;;6.80;5.35;;;18.30;85.90;;;;;;4998912;28;20040;-65
2021/06/07 05:50:21;;;;;;;5.50;5.00;;;18.30;85.90;;;;;;4998985;28;20085;-65
2021/06/07 05:52:48;;;;;;;6.10;5.45;;;18.30;85.90;;;;;;4997577;28;20030;-63
2021/06/07 05:55:25;;;;;;;6.10;5.32;;;18.30;85.90;;;;;;4998863;28;22129;-65
2021/06/07 05:57:53;;;;;;;6.63;5.47;;;18.30;86.00;;;;;;5000476;28;20031;-65
2021/06/07 06:00:21;;;;;;;6.63;5.68;;;18.30;85.90;;;;;;4998103;28;20077;-65
2021/06/07 06:02:47;;;;;;;6.25;5.57;;;18.30;86.00;;;;;;4999231;28;20031;-65
2021/06/07 06:05:14;;;;;;;8.18;5.72;;;18.30;86.20;;;;;;4997900;28;20116;-65
2021/06/07 06:07:40;;;;;;;7.60;5.78;;;18.30;86.40;;;;;;4999927;28;20046;-65
2021/06/07 06:10:06;;;;;;;6.65;5.85;;;18.40;86.40;;;;;;4996843;28;20034;-65
2021/06/07 06:12:32;;;;;;;6.22;5.50;;;18.40;86.40;;;;;;4996170;28;20042;-64
2021/06/07 06:14:58;;;;;;;7.78;6.30;;;18.40;86.50;;;;;;4997721;28;20057;-65
2021/06/07 06:17:24;;;;;;;6.47;5.85;;;18.40;86.60;;;;;;4998513;28;20281;-65
2021/06/07 06:19:49;;;;;;;8.05;6.07;;;18.50;86.60;;;;;;4996624;28;20029;-65
2021/06/07 06:22:15;;;;;;;7.72;5.57;;;18.50;86.60;;;;;;4997105;28;20025;-66
2021/06/07 06:24:42;;;;;;;7.05;5.82;;;18.50;86.30;;;;;;4998103;28;20143;-65
2021/06/07 06:27:09;;;;;;;6.68;5.88;;;18.60;86.00;;;;;;4997975;28;20036;-65
2021/06/07 06:29:36;;;;;;;6.32;5.72;;;18.60;86.00;;;;;;4998570;28;20049;-65
2021/06/07 06:32:03;;;;;;;6.22;5.63;;;18.60;86.00;;;;;;4997779;28;20073;-65
2021/06/07 06:34:29;;;;;;;6.22;5.68;;;18.60;85.90;;;;;;4994441;28;20026;-65
2021/06/07 06:36:55;;;;;;;6.35;5.70;;;18.60;85.70;;;;;;4996775;28;20046;-66
2021/06/07 06:39:20;;;;;;;6.57;5.90;;;18.70;85.70;;;;;;4998560;28;20282;-65
2021/06/07 06:41:46;;;;;;;7.60;5.57;;;18.70;85.50;;;;;;4996812;28;20139;-66
2021/06/07 06:44:12;;;;;;;5.80;5.25;;;18.70;85.50;;;;;;4998073;28;20505;-66
2021/06/07 06:46:37;;;;;;;6.80;6.03;;;18.70;85.50;;;;;;4998705;28;20039;-65
2021/06/07 06:49:03;;;;;;;6.05;5.45;;;18.70;85.50;;;;;;4996299;28;20030;-66
2021/06/07 06:51:30;;;;;;;6.97;6.28;;;18.70;85.70;;;;;;4999239;28;20513;-65
2021/06/07 06:53:56;;;;;;;6.60;6.00;;;18.70;85.70;;;;;;4997051;28;20044;-66
2021/06/07 06:56:21;;;;;;;7.65;6.32;;;18.70;85.60;;;;;;4996956;28;20037;-66
2021/06/07 06:58:47;;;;;;;6.47;5.88;;;18.70;85.70;;;;;;5004445;28;20062;-66
2021/06/07 07:01:13;;;;;;;41.58;7.95;;;18.70;85.70;;;;;;4995227;28;20515;-63
2021/06/07 07:03:40;;;;;;;21.15;6.38;;;18.70;85.70;;;;;;5003545;28;20045;-65
2021/06/07 07:06:06;;;;;;;14.07;6.65;;;18.80;85.70;;;;;;4997275;28;20026;-66
2021/06/07 07:08:32;;;;;;;13.18;6.07;;;18.80;85.60;;;;;;4998395;28;20041;-65
2021/06/07 07:10:58;;;;;;;6.32;5.72;;;18.80;85.70;;;;;;4996681;28;20038;-65
2021/06/07 07:13:24;;;;;;;6.68;5.82;;;18.80;85.70;;;;;;4996439;28;20048;-65
2021/06/07 07:15:50;;;;;;;7.22;6.53;;;18.80;86.00;;;;;;4996398;28;20497;-66
2021/06/07 07:18:15;;;;;;;6.55;5.95;;;18.90;86.20;;;;;;4999028;28;20516;-65
2021/06/07 07:20:42;;;;;;;6.60;6.00;;;18.90;85.90;;;;;;4995397;28;20052;-66
2021/06/07 07:23:08;;;;;;;5.93;5.30;;;18.90;85.60;;;;;;4997345;28;20034;-65
2021/06/07 07:25:34;;;;;;;6.75;5.97;;;19.00;85.50;;;;;;4997060;28;20040;-66
2021/06/07 07:28:00;;;;;;;6.97;6.28;;;19.00;85.60;;;;;;4996679;28;20397;-66
2021/06/07 07:30:27;;;;;;;6.43;5.82;;;19.00;85.50;;;;;;4996945;28;20030;-65
2021/06/07 07:32:54;;;;;;;7.18;6.47;;;19.00;85.30;;;;;;4998777;28;20034;-65
2021/06/07 07:35:21;;;;;;;7.05;6.35;;;19.00;85.10;;;;;;4995197;28;20109;-65
2021/06/07 07:37:47;;;;;;;6.35;5.75;;;19.10;84.80;;;;;;4995630;28;20037;-66
2021/06/07 07:40:16;;;;;;;6.65;6.05;;;19.00;84.50;;;;;;4998407;28;20034;-65
2021/06/07 07:42:42;;;;;;;6.57;6.00;;;19.00;84.70;;;;;;4995611;28;20077;-65
2021/06/07 07:45:09;;;;;;;9.25;6.18;;;19.00;85.20;;;;;;4996484;28;20583;-66
2021/06/07 07:47:36;;;;;;;7.75;6.35;;;19.00;85.40;;;;;;4997976;28;20068;-66
2021/06/07 07:50:05;;;;;;;8.40;6.63;;;19.00;85.50;;;;;;5001845;28;20038;-65
2021/06/07 07:52:30;;;;;;;8.25;7.03;;;19.00;85.50;;;;;;4994851;28;20077;-65
2021/06/07 07:54:57;;;;;;;7.55;6.47;;;19.00;85.60;;;;;;4996732;28;20132;-66
2021/06/07 07:57:23;;;;;;;8.18;7.28;;;19.10;85.60;;;;;;4997818;28;20029;-65
2021/06/07 07:59:49;;;;;;;10.13;6.80;;;19.10;85.70;;;;;;5004574;28;20410;-66
2021/06/07 08:02:15;;;;;;;11.38;8.38;;;19.10;85.90;;;;;;4997135;28;20025;-65
2021/06/07 08:04:41;;;;;;;8.88;7.97;;;19.20;86.00;;;;;;4994101;28;20034;-65
2021/06/07 08:07:08;;;;;;;27.42;10.27;;;19.30;85.70;;;;;;4995916;28;20049;-65
2021/06/07 08:09:35;;;;;;;28.63;10.27;;;19.30;85.70;;;;;;4998230;28;20032;-66
2021/06/07 08:12:01;;;;;;;11.65;9.02;;;19.30;86.00;;;;;;4995849;28;20030;-66
2021/06/07 08:14:28;;;;;;;11.93;9.20;;;19.40;85.90;;;;;;4998428;28;20032;-65
2021/06/07 08:16:54;;;;;;;15.15;9.40;;;19.50;85.70;;;;;;4998099;28;20053;-66
2021/06/07 08:19:25;;;;;;;18.38;9.63;;;19.50;85.40;;;;;;4997226;28;20042;-66
2021/06/07 08:21:50;;;;;;;37.15;11.35;;;19.60;86.20;;;;;;5001287;28;20034;-66
2021/06/07 08:24:16;;;;;;;50.97;12.35;;;19.70;85.40;;;;;;4994531;28;20034;-65
2021/06/07 08:26:42;;;;;;;16.55;8.93;;;19.70;85.60;;;;;;4998162;28;20077;-66
2021/06/07 08:29:08;;;;;;;8.32;7.53;;;19.80;85.20;;;;;;4998950;28;20116;-66
2021/06/07 08:31:35;;;;;;;9.50;8.50;;;19.90;84.60;;;;;;5001633;28;20029;-66
2021/06/07 08:34:02;;;;;;;9.13;8.23;;;19.90;83.80;;;;;;4999350;28;20561;-66
2021/06/07 08:36:27;;;;;;;24.85;10.13;;;20.00;83.40;;;;;;4999493;28;20034;-66
2021/06/07 08:38:53;;;;;;;10.07;8.93;;;20.00;83.80;;;;;;4999091;28;20037;-65
2021/06/07 08:41:19;;;;;;;10.35;9.10;;;20.10;83.80;;;;;;5007563;28;20033;-66
2021/06/07 08:43:45;;;;;;;9.35;8.45;;;20.10;83.60;;;;;;4998397;28;20030;-65
2021/06/07 08:46:11;;;;;;;18.35;9.55;;;20.20;82.90;;;;;;5001352;28;20081;-66
2021/06/07 08:48:37;;;;;;;9.82;8.77;;;20.20;82.90;;;;;;4998915;28;20509;-65
2021/06/07 08:51:03;;;;;;;11.20;7.95;;;20.30;83.00;;;;;;5000836;28;20030;-66
2021/06/07 08:53:29;;;;;;;17.95;9.25;;;20.40;83.30;;;;;;4997712;28;20072;-66
2021/06/07 08:55:56;;;;;;;12.98;8.57;;;20.50;83.00;;;;;;5000633;28;20073;-66
2021/06/07 08:58:22;;;;;;;12.88;8.85;;;20.60;82.80;;;;;;5004152;28;21914;-66
2021/06/07 09:00:47;;;;;;;9.20;8.18;;;20.70;82.30;;;;;;5000168;28;20050;-66
2021/06/07 09:03:20;;;;;;;12.60;8.95;;;20.80;82.00;;;;;;4997440;28;20034;-65
2021/06/07 09:05:52;;;;;;;23.25;10.30;;;20.80;82.70;;;;;;4999650;28;20113;-66
2021/06/07 09:08:18;;;;;;;13.25;8.85;;;21.00;82.00;;;;;;4997733;28;20041;-66
2021/06/07 09:10:49;;;;;;;12.80;9.05;;;21.10;82.20;;;;;;4998911;28;20041;-66
2021/06/07 09:13:17;;;;;;;10.15;8.23;;;21.20;80.70;;;;;;5000829;28;20058;-66
2021/06/07 09:15:47;;;;;;;8.80;7.60;;;21.30;79.60;;;;;;4999477;28;20528;-66
2021/06/07 09:18:26;;;;;;;8.95;8.05;;;21.30;79.30;;;;;;4999545;28;20035;-66
2021/06/07 09:21:03;;;;;;;8.75;7.95;;;21.30;79.10;;;;;;4998189;28;20033;-66
2021/06/07 09:23:46;;;;;;;7.53;6.70;;;21.40;77.80;;;;;;4998300;28;20077;-66
2021/06/07 09:26:32;;;;;;;8.55;7.75;;;21.40;77.90;;;;;;4998241;28;20081;-66
2021/06/07 09:29:03;;;;;;;8.30;7.00;;;21.50;77.80;;;;;;4999551;28;20034;-66
2021/06/07 09:31:39;;;;;;;7.85;7.15;;;21.50;78.10;;;;;;5001083;28;20030;-66
2021/06/07 09:34:09;;;;;;;7.80;7.00;;;21.60;78.00;;;;;;5001750;28;20034;-66
2021/06/07 09:36:42;;;;;;;7.22;6.50;;;21.70;78.50;;;;;;4999464;28;20087;-65
2021/06/07 09:39:15;;;;;;;8.40;7.60;;;21.80;77.50;;;;;;4997690;28;20398;-66
2021/06/07 09:41:57;;;;;;;8.45;7.65;;;21.80;76.00;;;;;;5000620;28;20030;-66
2021/06/07 09:44:23;;;;;;;8.02;7.22;;;21.80;76.50;;;;;;5005512;28;20080;-66
2021/06/07 09:46:49;;;;;;;7.20;6.60;;;21.90;77.20;;;;;;4999254;28;20026;-66
2021/06/07 09:49:23;;;;;;;8.30;7.50;;;21.90;76.50;;;;;;4999458;28;20509;-66
2021/06/07 09:51:57;;;;;;;8.52;7.63;;;22.00;75.70;;;;;;4999081;28;20042;-66
2021/06/07 09:54:24;;;;;;;9.00;8.10;;;22.00;75.70;;;;;;4997413;28;20547;-67
2021/06/07 09:56:54;;;;;;;10.05;8.15;;;22.00;75.90;;;;;;4999718;28;20126;-66
2021/06/07 09:59:34;;;;;;;9.43;8.15;;;22.00;75.40;;;;;;5000040;28;20382;-66
2021/06/07 10:02:01;;;;;;;8.52;7.65;;;22.00;75.50;;;;;;5004005;28;20034;-65
2021/06/07 10:04:48;;;;;;;7.68;6.97;;;22.00;75.40;;;;;;4998860;28;20060;-66
2021/06/07 10:07:14;;;;;;;7.95;7.15;;;22.00;74.20;;;;;;4998080;28;20035;-66
2021/06/07 10:10:00;;;;;;;8.63;7.72;;;22.00;75.60;;;;;;4998043;28;20100;-67
2021/06/07 10:12:26;;;;;;;9.52;8.63;;;21.90;75.60;;;;;;4994360;28;20038;-67
2021/06/07 10:14:52;;;;;;;10.05;9.05;;;21.90;75.80;;;;;;4999482;28;20053;-66
2021/06/07 10:17:17;;;;;;;9.90;8.98;;;21.90;75.50;;;;;;4999571;28;20437;-66
2021/06/07 10:22:13;;;;;;;10.48;8.82;;;21.80;75.30;;;;;;4996431;28;20046;-66
2021/06/07 10:24:39;;;;;;;9.68;8.57;;;21.80;75.20;;;;;;4999366;28;20030;-66
2021/06/07 10:27:06;;;;;;;9.80;8.88;;;21.80;75.50;;;;;;4998168;28;20030;-67
2021/06/07 10:29:43;;;;;;;9.32;8.43;;;21.80;75.90;;;;;;4996076;28;20045;-66
2021/06/07 10:32:17;;;;;;;9.88;8.88;;;21.80;75.80;;;;;;4997200;28;20049;-66
2021/06/07 10:34:51;;;;;;;10.10;9.07;;;21.80;76.70;;;;;;4997893;28;20034;-66
2021/06/07 10:37:18;;;;;;;11.27;10.18;;;21.90;76.40;;;;;;4998617;28;20495;-66
2021/06/07 10:39:44;;;;;;;10.32;9.32;;;21.90;74.40;;;;;;4998015;28;20485;-66
2021/06/07 10:42:11;;;;;;;10.07;9.05;;;22.00;74.60;;;;;;4997069;28;20037;-66
2021/06/07 10:44:43;;;;;;;10.98;9.00;;;22.00;74.90;;;;;;4995756;28;20037;-67
2021/06/07 10:47:18;;;;;;;9.77;8.77;;;22.00;76.10;;;;;;5004500;28;20126;-67
2021/06/07 10:49:49;;;;;;;;;;;22.10;75.60;;;;;;4997499;28;20034;-66
2021/06/07 10:52:27;;;;;;;10.05;9.05;;;22.10;74.80;;;;;;4997376;28;19917;-67
2021/06/07 10:55:07;;;;;;;9.15;8.25;;;22.20;74.10;;;;;;5001214;28;20045;-67
2021/06/07 10:57:37;;;;;;;8.73;7.85;;;22.20;74.90;;;;;;4998009;28;20030;-66
2021/06/07 11:00:15;;;;;;;7.25;6.55;;;22.30;74.70;;;;;;4998822;28;20030;-66
2021/06/07 11:02:44;;;;;;;10.63;8.63;;;22.30;75.00;;;;;;4997472;28;20117;-66
2021/06/07 11:05:11;;;;;;;9.70;8.70;;;22.40;75.10;;;;;;4998138;28;20030;-66
2021/06/07 11:07:37;;;;;;;8.05;7.25;;;22.50;74.20;;;;;;4996449;28;20518;-67
2021/06/07 11:10:25;;;;;;;7.88;7.07;;;22.60;74.00;;;;;;4998878;28;20034;-67
2021/06/07 11:12:57;;;;;;;8.05;7.25;;;22.70;72.50;;;;;;4993896;28;20034;-67
2021/06/07 11:15:30;;;;;;;8.63;7.80;;;22.80;73.60;;;;;;5012519;28;20065;-66
2021/06/07 11:18:28;;;;;;;7.15;6.40;;;22.80;73.20;;;;;;4996362;28;20068;-67
2021/06/07 11:21:06;;;;;;;7.10;6.28;;;22.90;71.80;;;;;;4997822;28;20062;-66
2021/06/07 11:23:34;;;;;;;6.57;5.88;;;22.90;72.80;;;;;;4996362;28;20058;-66
2021/06/07 11:26:01;;;;;;;7.97;7.15;;;23.00;72.80;;;;;;4997310;28;20390;-65
2021/06/07 11:28:27;;;;;;;8.27;6.65;;;23.00;72.90;;;;;;4996892;28;20093;-67
2021/06/07 11:30:53;;;;;;;9.43;7.82;;;23.00;72.50;;;;;;4998304;28;20096;-67
2021/06/07 11:33:19;;;;;;;8.85;7.40;;;23.00;72.60;;;;;;4993685;28;20355;-66
2021/06/07 11:35:45;;;;;;;9.65;7.78;;;23.00;72.90;;;;;;4996864;28;20069;-66
2021/06/07 11:38:32;;;;;;;12.50;8.40;;;22.90;73.00;;;;;;4998484;28;20563;-66
2021/06/07 11:40:59;;;;;;;8.93;8.02;;;22.90;73.50;;;;;;5002867;28;20109;-66
2021/06/07 11:43:46;;;;;;;11.35;7.88;;;22.90;73.60;;;;;;4995381;28;20397;-66
2021/06/07 11:46:30;;;;;;;8.82;7.93;;;22.80;73.30;;;;;;4995126;28;20041;-66
2021/06/07 11:49:06;;;;;;;9.18;8.15;;;22.80;73.30;;;;;;4997856;28;20038;-66
2021/06/07 11:51:33;;;;;;;9.30;8.40;;;22.70;73.40;;;;;;4996955;28;20031;-66
2021/06/07 11:53:59;;;;;;;10.77;8.27;;;22.70;73.90;;;;;;4995389;28;20084;-66
2021/06/07 11:56:25;;;;;;;12.20;7.85;;;22.70;74.10;;;;;;4996813;28;20030;-68
2021/06/07 11:58:51;;;;;;;10.05;7.22;;;22.70;74.20;;;;;;4998366;28;20513;-66
2021/06/07 12:01:17;;;;;;;14.68;8.13;;;22.60;74.00;;;;;;4996475;28;20069;-66
2021/06/07 12:03:44;;;;;;;12.05;6.82;;;22.60;74.60;;;;;;5000578;28;20030;-66
2021/06/07 12:06:10;;;;;;;8.13;5.95;;;22.50;74.20;;;;;;5000404;28;20037;-66
2021/06/07 12:08:36;;;;;;;6.32;5.25;;;22.40;74.00;;;;;;4998951;28;20097;-66
2021/06/07 12:11:04;;;;;;;6.80;5.75;;;22.40;73.60;;;;;;4997413;28;20267;-65
2021/06/07 12:13:41;;;;;;;7.68;5.88;;;22.20;73.70;;;;;;5006535;28;20034;-65
2021/06/07 12:16:11;;;;;;;8.25;7.43;;;22.20;74.60;;;;;;5000296;28;20036;-65
2021/06/07 12:18:46;;;;;;;8.25;7.40;;;22.10;74.90;;;;;;4999868;28;20047;-65
2021/06/07 12:21:17;;;;;;;9.23;8.18;;;22.00;75.80;;;;;;5000478;28;20561;-65
2021/06/07 12:24:13;;;;;;;11.10;9.07;;;22.00;76.50;;;;;;4999414;28;20058;-65
2021/06/07 12:29:25;;;;;;;8.77;7.88;;;21.90;77.50;;;;;;5000013;28;20547;-66
2021/06/07 12:32:13;;;;;;;9.32;8.25;;;22.00;77.50;;;;;;4998971;28;20069;-65
2021/06/07 12:35:05;;;;;;;8.95;7.55;;;22.00;77.50;;;;;;5004318;28;20077;-64
2021/06/07 12:37:39;;;;;;;8.77;7.85;;;22.10;76.30;;;;;;5001118;28;20093;-66
2021/06/07 12:40:11;;;;;;;10.45;9.35;;;22.10;76.80;;;;;;5000634;28;20037;-65
2021/06/07 12:42:37;;;;;;;9.80;8.52;;;22.10;76.00;;;;;;5000874;28;20042;-65
2021/06/07 12:45:08;;;;;;;9.82;8.82;;;22.10;76.90;;;;;;4997373;28;20250;-65
2021/06/07 12:47:34;;;;;;;10.40;9.00;;;22.10;77.60;;;;;;5001024;28;20453;-65
2021/06/07 12:50:12;;;;;;;9.13;8.23;;;22.10;76.50;;;;;;4999291;28;20125;-65
2021/06/07 12:52:38;;;;;;;9.93;8.77;;;22.10;76.20;;;;;;4998801;28;20401;-65
2021/06/07 12:55:06;;;;;;;9.25;8.35;;;22.10;76.90;;;;;;4999207;28;20045;-66